Time,TemperatureF,DewpointF,PressureIn,WindDirection,WindDirectionDegrees,WindSpeedMPH,WindSpeedGustMPH,Humidity,HourlyPrecipIn,Conditions,Clouds,dailyrainin,SolarRadiationWatts/m^2,SoftwareType,DateUTC
2013-08-09 00:01:00,61.5,60.4,30.02,NE,38,0.0,0.0,96,0.00,,,0.31,0.0,meteohub,2013-08-09 05:01:00,
2013-08-09 00:06:00,61.5,60.4,30.02,NE,38,0.0,0.0,96,0.00,,,0.00,0.0,meteohub,2013-08-09 05:06:00,
2013-08-09 00:11:00,61.5,60.4,30.02,NE,38,0.0,0.0,96,0.00,,,0.00,0.0,meteohub,2013-08-09 05:11:00,
2013-08-09 00:16:00,61.5,60.4,30.02,NE,38,0.0,0.0,96,0.00,,,0.00,0.0,meteohub,2013-08-09 05:16:00,
2013-08-09 00:21:00,61.3,60.3,30.02,NE,38,0.0,0.0,96,0.00,,,0.00,0.0,meteohub,2013-08-09 05:21:00,
2013-08-09 00:26:00,61.2,60.1,30.02,NE,38,0.0,0.0,96,0.00,,,0.00,0.0,meteohub,2013-08-09 05:26:00,
2013-08-09 00:31:00,61.2,60.1,30.02,NE,38,0.0,0.0,96,0.00,,,0.00,0.0,meteohub,2013-08-09 05:31:00,
2013-08-09 00:37:00,61.0,59.9,30.02,NE,38,0.0,0.0,96,0.00,,,0.00,0.0,meteohub,2013-08-09 05:37:00,
2013-08-09 00:42:00,60.8,59.7,30.03,NE,38,0.0,0.0,96,0.00,,,0.00,0.0,meteohub,2013-08-09 05:42:00,
2013-08-09 00:47:00,60.6,59.5,30.03,NE,38,0.0,0.0,96,0.00,,,0.00,0.0,meteohub,2013-08-09 05:47:00,
2013-08-09 00:52:00,60.6,59.5,30.03,NE,38,0.0,0.0,96,0.00,,,0.00,0.0,meteohub,2013-08-09 05:52:00,
2013-08-09 00:57:00,60.4,59.4,30.03,NE,38,0.0,0.0,96,0.00,,,0.00,0.0,meteohub,2013-08-09 05:57:00,
2013-08-09 01:02:00,60.3,59.2,30.03,NE,38,0.0,0.0,96,0.00,,,0.00,0.0,meteohub,2013-08-09 06:02:00,
2013-08-09 01:07:00,60.1,59.0,30.03,NE,38,0.0,0.0,96,0.00,,,0.00,0.0,meteohub,2013-08-09 06:07:00,
2013-08-09 01:12:00,59.7,58.6,30.03,NE,38,0.0,0.0,96,0.00,,,0.00,0.0,meteohub,2013-08-09 06:12:00,
2013-08-09 01:17:00,59.7,58.6,30.02,NE,38,0.0,0.0,96,0.00,,,0.00,0.0,meteohub,2013-08-09 06:17:00,
2013-08-09 01:22:00,59.5,58.5,30.02,NE,38,0.0,0.0,96,0.00,,,0.00,0.0,meteohub,2013-08-09 06:22:00,
2013-08-09 01:27:00,59.5,58.5,30.02,NE,38,0.0,0.0,96,0.00,,,0.00,0.0,meteohub,2013-08-09 06:27:00,
2013-08-09 01:32:00,59.4,58.3,30.02,NE,38,0.0,0.0,96,0.00,,,0.00,0.0,meteohub,2013-08-09 06:32:00,
2013-08-09 01:37:00,59.4,58.3,30.03,NE,38,0.0,0.0,96,0.00,,,0.00,0.0,meteohub,2013-08-09 06:37:00,
2013-08-09 01:42:00,59.2,58.1,30.03,NE,38,0.0,0.0,96,0.00,,,0.00,0.0,meteohub,2013-08-09 06:42:00,
2013-08-09 01:47:00,59.2,58.1,30.03,NE,38,0.0,0.0,96,0.00,,,0.00,0.0,meteohub,2013-08-09 06:47:00,
2013-08-09 01:52:00,58.8,57.7,30.04,NE,38,0.0,0.0,96,0.00,,,0.00,0.0,meteohub,2013-08-09 06:52:00,
2013-08-09 01:57:00,58.6,57.6,30.03,NE,38,0.0,0.0,96,0.00,,,0.00,0.0,meteohub,2013-08-09 06:57:00,
2013-08-09 02:02:00,58.5,57.4,30.03,NE,38,0.0,0.0,96,0.00,,,0.00,0.0,meteohub,2013-08-09 07:02:00,
2013-08-09 02:07:00,58.3,57.2,30.03,NE,38,0.0,0.0,96,0.00,,,0.00,0.0,meteohub,2013-08-09 07:07:00,
2013-08-09 02:12:00,58.3,57.2,30.03,NE,38,0.0,0.0,96,0.00,,,0.00,0.0,meteohub,2013-08-09 07:12:00,
2013-08-09 02:17:00,58.3,57.2,30.03,NE,38,0.0,0.0,96,0.00,,,0.00,0.0,meteohub,2013-08-09 07:17:00,
2013-08-09 02:22:00,58.3,57.2,30.03,NE,38,0.0,0.0,96,0.00,,,0.00,0.0,meteohub,2013-08-09 07:22:00,
2013-08-09 02:27:00,58.3,56.8,30.03,NE,38,0.0,0.0,95,0.00,,,0.00,0.0,meteohub,2013-08-09 07:27:00,
2013-08-09 02:32:00,57.9,56.5,30.04,NE,38,0.0,0.0,95,0.00,,,0.00,0.0,meteohub,2013-08-09 07:32:00,
2013-08-09 02:37:00,57.9,56.5,30.03,NE,38,0.0,0.0,95,0.00,,,0.00,0.0,meteohub,2013-08-09 07:37:00,
2013-08-09 02:42:00,57.7,56.3,30.03,NE,38,0.0,0.0,95,0.00,,,0.00,0.0,meteohub,2013-08-09 07:42:00,
2013-08-09 02:47:00,57.6,56.1,30.04,NE,38,0.0,0.0,95,0.00,,,0.00,0.0,meteohub,2013-08-09 07:47:00,
2013-08-09 02:52:00,57.6,56.5,30.04,NE,38,0.0,0.0,96,0.00,,,0.00,0.0,meteohub,2013-08-09 07:52:00,
2013-08-09 02:57:00,57.6,56.1,30.04,NE,38,0.0,0.0,95,0.00,,,0.00,0.0,meteohub,2013-08-09 07:57:00,
2013-08-09 03:02:00,57.6,56.1,30.04,NE,38,0.0,0.0,95,0.00,,,0.00,0.0,meteohub,2013-08-09 08:02:00,
2013-08-09 03:07:00,57.4,55.9,30.04,NE,38,0.0,0.0,95,0.00,,,0.00,0.0,meteohub,2013-08-09 08:07:00,
2013-08-09 03:12:00,57.0,55.6,30.04,NE,38,0.0,0.0,95,0.00,,,0.00,0.0,meteohub,2013-08-09 08:12:00,
2013-08-09 03:17:00,56.8,55.4,30.04,NE,38,0.0,0.0,95,0.00,,,0.00,0.0,meteohub,2013-08-09 08:17:00,
2013-08-09 03:22:00,56.8,55.8,30.04,NE,38,0.0,0.0,96,0.00,,,0.00,0.0,meteohub,2013-08-09 08:22:00,
2013-08-09 03:27:00,56.7,55.6,30.04,NE,38,0.0,0.0,96,0.00,,,0.00,0.0,meteohub,2013-08-09 08:27:00,
2013-08-09 03:32:00,56.5,55.4,30.04,NE,38,0.0,0.0,96,0.00,,,0.00,0.0,meteohub,2013-08-09 08:32:00,
2013-08-09 03:37:00,56.5,55.4,30.04,NE,38,0.0,0.0,96,0.00,,,0.00,0.0,meteohub,2013-08-09 08:37:00,
2013-08-09 03:42:00,56.5,55.4,30.04,NE,38,0.0,0.0,96,0.00,,,0.00,0.0,meteohub,2013-08-09 08:42:00,
2013-08-09 03:47:00,56.5,55.4,30.04,NE,38,0.0,0.0,96,0.00,,,0.00,0.0,meteohub,2013-08-09 08:47:00,
2013-08-09 03:52:00,56.3,55.2,30.04,NE,38,0.0,0.0,96,0.00,,,0.00,0.0,meteohub,2013-08-09 08:52:00,
2013-08-09 03:57:00,56.1,55.0,30.04,NE,38,0.0,0.0,96,0.00,,,0.00,0.0,meteohub,2013-08-09 08:57:00,
2013-08-09 04:02:00,56.1,55.0,30.04,NE,38,0.0,0.0,96,0.00,,,0.00,0.0,meteohub,2013-08-09 09:02:00,
2013-08-09 04:07:00,56.3,55.4,30.04,NE,38,0.0,0.0,97,0.00,,,0.00,0.0,meteohub,2013-08-09 09:07:00,
2013-08-09 04:12:00,56.3,55.4,30.04,NE,38,0.0,0.0,97,0.00,,,0.00,0.0,meteohub,2013-08-09 09:12:00,
2013-08-09 04:17:00,56.1,55.2,30.04,NE,38,0.0,0.0,97,0.00,,,0.00,0.0,meteohub,2013-08-09 09:17:00,
2013-08-09 04:22:00,55.9,54.9,30.04,NE,38,0.0,0.0,96,0.00,,,0.00,0.0,meteohub,2013-08-09 09:22:00,
2013-08-09 04:27:00,55.8,54.7,30.04,NE,38,0.0,0.0,96,0.00,,,0.00,0.0,meteohub,2013-08-09 09:27:00,
2013-08-09 04:32:00,55.8,54.9,30.04,NE,38,0.0,0.0,97,0.00,,,0.00,0.0,meteohub,2013-08-09 09:32:00,
2013-08-09 04:37:00,55.8,54.9,30.04,NE,38,0.0,0.0,97,0.00,,,0.00,0.0,meteohub,2013-08-09 09:37:00,
2013-08-09 04:42:00,55.8,54.9,30.04,NE,38,0.0,0.0,97,0.00,,,0.00,0.0,meteohub,2013-08-09 09:42:00,
2013-08-09 04:47:00,55.6,54.7,30.04,NE,38,0.0,0.0,97,0.00,,,0.00,0.0,meteohub,2013-08-09 09:47:00,
2013-08-09 04:52:00,55.6,54.7,30.04,NE,38,0.0,0.0,97,0.00,,,0.00,0.0,meteohub,2013-08-09 09:52:00,
2013-08-09 04:57:00,55.4,54.5,30.04,NE,38,0.0,0.0,97,0.00,,,0.00,0.0,meteohub,2013-08-09 09:57:00,
2013-08-09 05:02:00,55.2,54.3,30.04,NE,38,0.0,0.0,97,0.00,,,0.00,0.0,meteohub,2013-08-09 10:02:00,
2013-08-09 05:07:00,55.0,54.1,30.04,NE,38,0.0,0.0,97,0.00,,,0.00,0.0,meteohub,2013-08-09 10:07:00,
2013-08-09 05:12:00,55.0,54.1,30.04,NE,38,0.0,0.0,97,0.00,,,0.00,0.0,meteohub,2013-08-09 10:12:00,
2013-08-09 05:17:00,54.9,54.0,30.04,NE,38,0.0,0.0,97,0.00,,,0.00,0.0,meteohub,2013-08-09 10:17:00,
2013-08-09 05:22:00,54.9,54.0,30.04,NE,38,0.0,0.0,97,0.00,,,0.00,0.0,meteohub,2013-08-09 10:22:00,
2013-08-09 05:27:00,54.7,53.8,30.05,NE,38,0.0,0.0,97,0.00,,,0.00,0.0,meteohub,2013-08-09 10:27:00,
2013-08-09 05:32:00,54.5,53.6,30.04,NE,38,0.0,0.0,97,0.00,,,0.00,0.0,meteohub,2013-08-09 10:32:00,
2013-08-09 05:37:00,54.5,53.6,30.05,NE,38,0.0,0.0,97,0.00,,,0.00,0.0,meteohub,2013-08-09 10:37:00,
2013-08-09 05:42:00,54.7,53.8,30.05,NE,38,0.0,0.0,97,0.00,,,0.00,0.0,meteohub,2013-08-09 10:42:00,
2013-08-09 05:47:00,54.5,53.6,30.05,NE,38,0.0,0.0,97,0.00,,,0.00,0.0,meteohub,2013-08-09 10:47:00,
2013-08-09 05:52:00,54.5,53.6,30.05,NE,38,0.0,0.0,97,0.00,,,0.00,0.0,meteohub,2013-08-09 10:52:00,
2013-08-09 05:56:00,54.3,53.4,30.06,NE,38,0.0,0.0,97,0.00,,,0.00,0.0,meteohub,2013-08-09 10:56:00,
2013-08-09 06:02:00,54.3,53.4,30.06,NE,38,0.0,0.0,97,0.00,,,0.00,0.0,meteohub,2013-08-09 11:02:00,
2013-08-09 06:07:00,54.3,53.4,30.06,NE,38,0.0,0.0,97,0.00,,,0.00,0.0,meteohub,2013-08-09 11:07:00,
2013-08-09 06:12:00,54.3,53.4,30.06,NE,38,0.0,0.0,97,0.00,,,0.00,0.0,meteohub,2013-08-09 11:12:00,
2013-08-09 06:17:00,54.1,53.2,30.06,NE,38,0.0,0.0,97,0.00,,,0.00,0.0,meteohub,2013-08-09 11:17:00,
2013-08-09 06:22:00,54.1,53.2,30.06,NE,38,0.0,0.0,97,0.00,,,0.00,0.0,meteohub,2013-08-09 11:22:00,
2013-08-09 06:27:00,54.1,53.2,30.06,NE,38,0.0,0.0,97,0.00,,,0.00,5.0,meteohub,2013-08-09 11:27:00,
2013-08-09 06:32:00,54.1,53.2,30.06,NE,38,0.0,0.0,97,0.00,,,0.00,7.0,meteohub,2013-08-09 11:32:00,
2013-08-09 06:37:00,54.1,53.2,30.06,NE,38,0.0,0.0,97,0.00,,,0.00,9.0,meteohub,2013-08-09 11:37:00,
2013-08-09 06:42:00,54.1,53.2,30.06,NE,38,0.0,0.0,97,0.00,,,0.00,11.0,meteohub,2013-08-09 11:42:00,
2013-08-09 06:47:00,54.1,53.2,30.06,NE,38,0.0,0.0,97,0.00,,,0.00,12.0,meteohub,2013-08-09 11:47:00,
2013-08-09 06:52:00,54.3,53.4,30.06,NE,38,0.0,0.0,97,0.00,,,0.00,14.0,meteohub,2013-08-09 11:52:00,
2013-08-09 06:57:00,54.3,53.4,30.07,NE,38,0.0,0.0,97,0.00,,,0.00,16.0,meteohub,2013-08-09 11:57:00,
2013-08-09 07:02:00,54.3,53.4,30.07,NE,38,0.0,0.0,97,0.00,,,0.00,18.0,meteohub,2013-08-09 12:02:00,
2013-08-09 07:07:00,54.7,53.8,30.07,NE,38,0.0,0.0,97,0.00,,,0.00,19.0,meteohub,2013-08-09 12:07:00,
2013-08-09 07:12:00,54.7,54.1,30.07,NE,38,0.0,0.0,98,0.00,,,0.00,21.0,meteohub,2013-08-09 12:12:00,
2013-08-09 07:17:00,54.9,54.3,30.07,NE,38,0.0,0.0,98,0.00,,,0.00,23.0,meteohub,2013-08-09 12:17:00,
2013-08-09 07:22:00,54.9,54.3,30.07,NE,38,0.0,0.0,98,0.00,,,0.00,25.0,meteohub,2013-08-09 12:22:00,
2013-08-09 07:27:00,55.0,54.5,30.07,NE,38,0.0,0.0,98,0.00,,,0.00,26.0,meteohub,2013-08-09 12:27:00,
2013-08-09 07:32:00,55.2,54.7,30.07,NE,38,0.0,0.0,98,0.00,,,0.00,30.0,meteohub,2013-08-09 12:32:00,
2013-08-09 07:37:00,55.4,54.9,30.08,NE,38,0.0,0.0,98,0.00,,,0.00,33.0,meteohub,2013-08-09 12:37:00,
2013-08-09 07:42:00,55.8,55.2,30.08,NE,38,0.0,0.0,98,0.00,,,0.00,35.0,meteohub,2013-08-09 12:42:00,
2013-08-09 07:47:00,55.9,55.4,30.08,NE,38,0.0,0.0,98,0.00,,,0.00,39.0,meteohub,2013-08-09 12:47:00,
2013-08-09 07:52:00,56.1,55.6,30.08,NE,38,0.0,0.0,98,0.00,,,0.00,40.0,meteohub,2013-08-09 12:52:00,
2013-08-09 07:57:00,56.7,56.1,30.08,NE,38,0.0,0.0,98,0.00,,,0.00,42.0,meteohub,2013-08-09 12:57:00,
2013-08-09 08:02:00,56.8,56.3,30.09,NE,38,0.0,0.0,98,0.00,,,0.00,44.0,meteohub,2013-08-09 13:02:00,
2013-08-09 08:07:00,57.0,56.5,30.09,NE,38,0.0,0.0,98,0.00,,,0.00,47.0,meteohub,2013-08-09 13:07:00,
2013-08-09 08:12:00,57.6,57.0,30.09,NE,38,0.0,1.0,98,0.00,,,0.00,49.0,meteohub,2013-08-09 13:12:00,
2013-08-09 08:17:00,57.7,57.2,30.09,NE,38,0.0,1.0,98,0.00,,,0.00,51.0,meteohub,2013-08-09 13:17:00,
2013-08-09 08:22:00,58.1,57.6,30.09,NE,38,0.0,1.0,98,0.00,,,0.00,53.0,meteohub,2013-08-09 13:22:00,
2013-08-09 08:27:00,58.5,57.9,30.09,NE,38,0.0,0.0,98,0.00,,,0.00,54.0,meteohub,2013-08-09 13:27:00,
2013-08-09 08:32:00,58.6,57.7,30.09,WNW,294,2.0,2.0,97,0.00,,,0.00,56.0,meteohub,2013-08-09 13:32:00,
2013-08-09 08:37:00,59.2,58.3,30.09,North,0,0.0,2.0,97,0.00,,,0.00,60.0,meteohub,2013-08-09 13:37:00,
2013-08-09 08:42:00,59.5,58.5,30.09,NW,311,0.0,2.0,96,0.00,,,0.00,62.0,meteohub,2013-08-09 13:42:00,
2013-08-09 08:47:00,59.9,58.8,30.10,North,0,1.0,2.0,96,0.00,,,0.00,257.0,meteohub,2013-08-09 13:47:00,
2013-08-09 08:52:00,60.3,58.8,30.10,West,276,0.0,2.0,95,0.00,,,0.00,178.0,meteohub,2013-08-09 13:52:00,
2013-08-09 08:57:00,60.4,59.0,30.10,West,276,0.0,2.0,95,0.00,,,0.00,313.0,meteohub,2013-08-09 13:57:00,
2013-08-09 09:02:00,60.4,58.6,30.10,West,276,0.0,2.0,94,0.00,,,0.00,211.0,meteohub,2013-08-09 14:02:00,
2013-08-09 09:07:00,60.6,58.8,30.10,West,276,0.0,2.0,94,0.00,,,0.00,339.0,meteohub,2013-08-09 14:07:00,
2013-08-09 09:12:00,61.0,59.2,30.10,West,276,0.0,2.0,94,0.00,,,0.00,357.0,meteohub,2013-08-09 14:12:00,
2013-08-09 09:17:00,61.0,59.0,30.11,West,276,0.0,2.0,93,0.00,,,0.00,148.0,meteohub,2013-08-09 14:17:00,
2013-08-09 09:22:00,61.5,59.2,30.11,West,275,0.0,2.0,92,0.00,,,0.00,149.0,meteohub,2013-08-09 14:22:00,
2013-08-09 09:27:00,62.1,59.7,30.11,SW,234,0.0,2.0,92,0.00,,,0.00,313.0,meteohub,2013-08-09 14:27:00,
2013-08-09 09:32:00,62.2,59.5,30.11,SW,234,1.0,2.0,91,0.00,,,0.00,123.0,meteohub,2013-08-09 14:32:00,
2013-08-09 09:37:00,62.2,59.2,30.11,WSW,237,0.0,2.0,90,0.00,,,0.00,174.0,meteohub,2013-08-09 14:37:00,
2013-08-09 09:42:00,62.8,59.5,30.12,WSW,237,0.0,3.0,89,0.00,,,0.00,404.0,meteohub,2013-08-09 14:42:00,
2013-08-09 09:47:00,63.3,59.4,30.12,WNW,302,1.0,3.0,87,0.00,,,0.00,462.0,meteohub,2013-08-09 14:47:00,
2013-08-09 09:52:00,63.5,59.2,30.12,WNW,302,1.0,2.0,86,0.00,,,0.00,478.0,meteohub,2013-08-09 14:52:00,
2013-08-09 09:57:00,64.2,59.9,30.12,NNE,12,0.0,5.0,86,0.00,,,0.00,490.0,meteohub,2013-08-09 14:57:00,
2013-08-09 10:02:00,64.4,58.5,30.12,West,262,0.0,5.0,81,0.00,,,0.00,508.0,meteohub,2013-08-09 15:02:00,
2013-08-09 10:07:00,64.0,58.5,30.12,WSW,246,0.0,4.0,82,0.00,,,0.00,517.0,meteohub,2013-08-09 15:07:00,
2013-08-09 10:12:00,63.9,59.0,30.12,WSW,252,2.0,5.0,84,0.00,,,0.00,529.0,meteohub,2013-08-09 15:12:00,
2013-08-09 10:17:00,64.2,59.0,30.12,WSW,252,2.0,5.0,83,0.00,,,0.00,545.0,meteohub,2013-08-09 15:17:00,
2013-08-09 10:22:00,64.6,58.3,30.12,NE,53,0.0,5.0,80,0.00,,,0.00,559.0,meteohub,2013-08-09 15:22:00,
2013-08-09 10:27:00,64.9,59.9,30.12,NNE,16,0.0,6.0,84,0.00,,,0.00,570.0,meteohub,2013-08-09 15:27:00,
2013-08-09 10:32:00,65.3,60.1,30.12,NW,319,1.0,6.0,83,0.00,,,0.00,582.0,meteohub,2013-08-09 15:32:00,
2013-08-09 10:37:00,64.8,58.1,30.12,West,264,0.0,6.0,79,0.00,,,0.00,599.0,meteohub,2013-08-09 15:37:00,
2013-08-09 10:42:00,64.9,57.9,30.12,West,259,0.0,4.0,78,0.00,,,0.00,606.0,meteohub,2013-08-09 15:42:00,
2013-08-09 10:47:00,65.7,57.9,30.13,North,10,1.0,4.0,76,0.00,,,0.00,617.0,meteohub,2013-08-09 15:47:00,
2013-08-09 10:52:00,65.8,58.5,30.12,WNW,290,1.0,4.0,77,0.00,,,0.00,629.0,meteohub,2013-08-09 15:52:00,
2013-08-09 10:57:00,66.4,57.0,30.12,West,269,1.0,6.0,72,0.00,,,0.00,642.0,meteohub,2013-08-09 15:57:00,
2013-08-09 11:02:00,65.5,57.0,30.12,NNE,30,2.0,6.0,74,0.00,,,0.00,656.0,meteohub,2013-08-09 16:02:00,
2013-08-09 11:07:00,66.4,58.3,30.12,West,281,2.0,4.0,75,0.00,,,0.00,666.0,meteohub,2013-08-09 16:07:00,
2013-08-09 11:12:00,66.0,56.7,30.12,West,263,3.0,4.0,72,0.00,,,0.00,673.0,meteohub,2013-08-09 16:12:00,
2013-08-09 11:17:00,66.9,57.6,30.12,WSW,255,0.0,7.0,72,0.00,,,0.00,686.0,meteohub,2013-08-09 16:17:00,
2013-08-09 11:22:00,67.3,57.9,30.12,West,277,0.0,7.0,72,0.00,,,0.00,693.0,meteohub,2013-08-09 16:22:00,
2013-08-09 11:27:00,67.8,57.2,30.12,NNW,348,4.0,7.0,69,0.00,,,0.00,705.0,meteohub,2013-08-09 16:27:00,
2013-08-09 11:32:00,67.3,57.9,30.12,WSW,257,2.0,6.0,72,0.00,,,0.00,714.0,meteohub,2013-08-09 16:32:00,
2013-08-09 11:37:00,67.6,58.3,30.11,North,5,2.0,6.0,72,0.00,,,0.00,721.0,meteohub,2013-08-09 16:37:00,
2013-08-09 11:42:00,67.8,58.5,30.11,West,277,3.0,5.0,72,0.00,,,0.00,728.0,meteohub,2013-08-09 16:42:00,
2013-08-09 11:47:00,67.8,58.5,30.11,WNW,283,1.0,6.0,72,0.00,,,0.00,740.0,meteohub,2013-08-09 16:47:00,
2013-08-09 11:52:00,68.4,57.4,30.11,West,267,3.0,7.0,68,0.00,,,0.00,752.0,meteohub,2013-08-09 16:52:00,
2013-08-09 11:57:00,68.2,57.6,30.11,North,5,2.0,7.0,69,0.00,,,0.00,759.0,meteohub,2013-08-09 16:57:00,
2013-08-09 12:02:00,68.2,55.6,30.11,West,265,2.0,7.0,64,0.00,,,0.00,768.0,meteohub,2013-08-09 17:02:00,
2013-08-09 12:07:00,67.8,57.2,30.11,West,277,0.0,5.0,69,0.00,,,0.00,777.0,meteohub,2013-08-09 17:07:00,
2013-08-09 12:12:00,68.7,57.7,30.11,NW,308,0.0,5.0,68,0.00,,,0.00,784.0,meteohub,2013-08-09 17:12:00,
2013-08-09 12:17:00,68.5,58.3,30.11,North,5,0.0,5.0,70,0.00,,,0.00,791.0,meteohub,2013-08-09 17:17:00,
2013-08-09 12:22:00,68.9,58.3,30.11,West,264,4.0,4.0,69,0.00,,,0.00,796.0,meteohub,2013-08-09 17:22:00,
2013-08-09 12:27:00,68.0,56.3,30.10,SSW,205,1.0,6.0,66,0.00,,,0.00,802.0,meteohub,2013-08-09 17:27:00,
2013-08-09 12:32:00,68.5,58.3,30.11,North,355,0.0,6.0,70,0.00,,,0.00,810.0,meteohub,2013-08-09 17:32:00,
2013-08-09 12:37:00,68.7,55.2,30.11,West,277,3.0,5.0,62,0.00,,,0.00,816.0,meteohub,2013-08-09 17:37:00,
2013-08-09 12:42:00,69.3,57.4,30.11,West,275,1.0,6.0,66,0.00,,,0.00,823.0,meteohub,2013-08-09 17:42:00,
2013-08-09 12:47:00,68.5,58.3,30.10,NNE,22,1.0,8.0,70,0.00,,,0.00,828.0,meteohub,2013-08-09 17:47:00,
2013-08-09 12:52:00,69.6,59.4,30.10,WNW,298,1.0,8.0,70,0.00,,,0.00,831.0,meteohub,2013-08-09 17:52:00,
2013-08-09 12:57:00,69.3,57.4,30.10,WNW,298,0.0,8.0,66,0.00,,,0.00,837.0,meteohub,2013-08-09 17:57:00,
2013-08-09 13:02:00,69.6,56.5,30.10,West,269,2.0,6.0,63,0.00,,,0.00,838.0,meteohub,2013-08-09 18:02:00,
2013-08-09 13:07:00,70.2,58.6,30.10,WSW,256,2.0,7.0,67,0.00,,,0.00,842.0,meteohub,2013-08-09 18:07:00,
2013-08-09 13:12:00,70.5,58.6,30.10,WNW,290,1.0,7.0,66,0.00,,,0.00,844.0,meteohub,2013-08-09 18:12:00,
2013-08-09 13:17:00,70.0,55.9,30.10,West,277,3.0,7.0,61,0.00,,,0.00,846.0,meteohub,2013-08-09 18:17:00,
2013-08-09 13:22:00,69.6,56.5,30.10,West,279,2.0,7.0,63,0.00,,,0.00,847.0,meteohub,2013-08-09 18:22:00,
2013-08-09 13:27:00,70.0,56.3,30.09,West,274,0.0,8.0,62,0.00,,,0.00,849.0,meteohub,2013-08-09 18:27:00,
2013-08-09 13:32:00,70.7,57.9,30.10,WNW,284,1.0,8.0,64,0.00,,,0.00,849.0,meteohub,2013-08-09 18:32:00,
2013-08-09 13:37:00,70.3,58.5,30.09,West,259,5.0,8.0,66,0.00,,,0.00,851.0,meteohub,2013-08-09 18:37:00,
2013-08-09 13:42:00,70.0,56.3,30.09,WSW,255,4.0,6.0,62,0.00,,,0.00,851.0,meteohub,2013-08-09 18:42:00,
2013-08-09 13:47:00,69.6,57.7,30.09,North,10,4.0,6.0,66,0.00,,,0.00,846.0,meteohub,2013-08-09 18:47:00,
2013-08-09 13:52:00,70.3,58.5,30.09,West,280,1.0,6.0,66,0.00,,,0.00,851.0,meteohub,2013-08-09 18:52:00,
2013-08-09 13:57:00,70.2,57.4,30.09,West,280,3.0,6.0,64,0.00,,,0.00,851.0,meteohub,2013-08-09 18:57:00,
2013-08-09 14:02:00,70.3,56.7,30.09,WNW,299,1.0,4.0,62,0.00,,,0.00,851.0,meteohub,2013-08-09 19:02:00,
2013-08-09 14:07:00,70.2,56.5,30.09,North,9,3.0,4.0,62,0.00,,,0.00,853.0,meteohub,2013-08-09 19:07:00,
2013-08-09 14:12:00,70.5,58.6,30.09,WSW,250,2.0,6.0,66,0.00,,,0.00,851.0,meteohub,2013-08-09 19:12:00,
2013-08-09 14:17:00,70.3,57.2,30.09,NNW,343,3.0,7.0,63,0.00,,,0.00,847.0,meteohub,2013-08-09 19:17:00,
2013-08-09 14:22:00,70.3,57.2,30.09,WSW,248,3.0,7.0,63,0.00,,,0.00,851.0,meteohub,2013-08-09 19:22:00,
2013-08-09 14:27:00,70.5,59.0,30.09,West,267,2.0,6.0,67,0.00,,,0.00,846.0,meteohub,2013-08-09 19:27:00,
2013-08-09 14:32:00,70.7,56.7,30.09,West,259,5.0,6.0,61,0.00,,,0.00,846.0,meteohub,2013-08-09 19:32:00,
2013-08-09 14:37:00,70.5,55.9,30.09,West,265,1.0,6.0,60,0.00,,,0.00,840.0,meteohub,2013-08-09 19:37:00,
2013-08-09 14:42:00,71.8,61.0,30.09,NW,321,0.0,5.0,69,0.00,,,0.00,849.0,meteohub,2013-08-09 19:42:00,
2013-08-09 14:47:00,71.4,59.0,30.09,West,263,2.0,5.0,65,0.00,,,0.00,833.0,meteohub,2013-08-09 19:47:00,
2013-08-09 14:52:00,71.4,57.7,30.09,NNE,15,2.0,5.0,62,0.00,,,0.00,828.0,meteohub,2013-08-09 19:52:00,
2013-08-09 14:57:00,71.8,57.6,30.08,NNW,337,2.0,6.0,61,0.00,,,0.00,826.0,meteohub,2013-08-09 19:57:00,
2013-08-09 15:02:00,71.2,56.1,30.09,SSW,201,2.0,6.0,59,0.00,,,0.00,821.0,meteohub,2013-08-09 20:02:00,
2013-08-09 15:07:00,71.4,57.2,30.09,WSW,244,1.0,7.0,61,0.00,,,0.00,814.0,meteohub,2013-08-09 20:07:00,
2013-08-09 15:12:00,71.8,57.6,30.09,West,276,3.0,7.0,61,0.00,,,0.00,838.0,meteohub,2013-08-09 20:12:00,
2013-08-09 15:17:00,72.1,57.9,30.09,WNW,296,2.0,7.0,61,0.00,,,0.00,810.0,meteohub,2013-08-09 20:17:00,
2013-08-09 15:22:00,71.8,57.2,30.09,West,273,3.0,7.0,60,0.00,,,0.00,520.0,meteohub,2013-08-09 20:22:00,
2013-08-09 15:27:00,71.8,56.1,30.09,West,273,0.0,7.0,58,0.00,,,0.00,786.0,meteohub,2013-08-09 20:27:00,
2013-08-09 15:32:00,72.0,58.6,30.09,North,5,0.0,6.0,63,0.00,,,0.00,791.0,meteohub,2013-08-09 20:32:00,
2013-08-09 15:37:00,71.8,55.8,30.09,NNE,17,2.0,5.0,57,0.00,,,0.00,195.0,meteohub,2013-08-09 20:37:00,
2013-08-09 15:42:00,71.8,55.2,30.09,WSW,246,4.0,6.0,56,0.00,,,0.00,756.0,meteohub,2013-08-09 20:42:00,
2013-08-09 15:47:00,72.0,58.3,30.09,West,265,1.0,7.0,62,0.00,,,0.00,724.0,meteohub,2013-08-09 20:47:00,
2013-08-09 15:52:00,71.8,57.6,30.09,WSW,250,1.0,7.0,61,0.00,,,0.00,394.0,meteohub,2013-08-09 20:52:00,
2013-08-09 15:57:00,72.0,55.9,30.09,West,273,1.0,5.0,57,0.00,,,0.00,260.0,meteohub,2013-08-09 20:57:00,
2013-08-09 16:02:00,72.0,57.4,30.09,West,273,2.0,7.0,60,0.00,,,0.00,341.0,meteohub,2013-08-09 21:02:00,
2013-08-09 16:07:00,71.8,56.7,30.09,West,274,0.0,7.0,59,0.00,,,0.00,360.0,meteohub,2013-08-09 21:07:00,
2013-08-09 16:12:00,71.4,57.7,30.09,NNE,15,2.0,4.0,62,0.00,,,0.00,371.0,meteohub,2013-08-09 21:12:00,
2013-08-09 16:17:00,71.6,56.5,30.09,NNW,338,2.0,5.0,59,0.00,,,0.00,374.0,meteohub,2013-08-09 21:17:00,
2013-08-09 16:22:00,71.4,56.3,30.09,West,273,2.0,5.0,59,0.00,,,0.00,687.0,meteohub,2013-08-09 21:22:00,
2013-08-09 16:27:00,71.4,55.9,30.09,West,271,2.0,5.0,58,0.00,,,0.00,362.0,meteohub,2013-08-09 21:27:00,
2013-08-09 16:32:00,71.1,56.5,30.09,West,274,3.0,7.0,60,0.00,,,0.00,601.0,meteohub,2013-08-09 21:32:00,
2013-08-09 16:37:00,70.5,55.0,30.09,West,264,1.0,7.0,58,0.00,,,0.00,123.0,meteohub,2013-08-09 21:37:00,
2013-08-09 16:42:00,70.2,55.6,30.09,West,273,3.0,7.0,60,0.00,,,0.00,118.0,meteohub,2013-08-09 21:42:00,
2013-08-09 16:47:00,70.5,55.6,30.09,NNW,344,1.0,6.0,59,0.00,,,0.00,65.0,meteohub,2013-08-09 21:47:00,
2013-08-09 16:52:00,70.5,57.4,30.09,NNW,328,0.0,8.0,63,0.00,,,0.00,487.0,meteohub,2013-08-09 21:52:00,
2013-08-09 16:57:00,71.2,54.3,30.09,NNW,328,2.0,8.0,55,0.00,,,0.00,538.0,meteohub,2013-08-09 21:57:00,
2013-08-09 17:02:00,71.2,57.6,30.09,West,261,0.0,8.0,62,0.00,,,0.00,88.0,meteohub,2013-08-09 22:02:00,
2013-08-09 17:07:00,71.1,56.5,30.09,NW,307,0.0,5.0,60,0.00,,,0.00,95.0,meteohub,2013-08-09 22:07:00,
2013-08-09 17:12:00,70.3,55.8,30.09,West,259,0.0,5.0,60,0.00,,,0.00,49.0,meteohub,2013-08-09 22:12:00,
2013-08-09 17:17:00,69.1,56.5,30.09,West,259,0.0,4.0,64,0.00,,,0.00,46.0,meteohub,2013-08-09 22:17:00,
2013-08-09 17:22:00,69.1,56.8,30.09,WNW,298,0.0,4.0,65,0.00,,,0.00,98.0,meteohub,2013-08-09 22:22:00,
2013-08-09 17:27:00,70.0,57.2,30.09,North,355,0.0,8.0,64,0.00,,,0.00,97.0,meteohub,2013-08-09 22:27:00,
2013-08-09 17:32:00,70.9,55.8,30.09,WSW,246,0.0,8.0,59,0.00,,,0.00,58.0,meteohub,2013-08-09 22:32:00,
2013-08-09 17:37:00,70.9,55.8,30.09,WNW,296,1.0,5.0,59,0.00,,,0.00,90.0,meteohub,2013-08-09 22:37:00,
2013-08-09 17:42:00,70.7,55.2,30.09,WNW,287,2.0,5.0,58,0.00,,,0.00,111.0,meteohub,2013-08-09 22:42:00,
2013-08-09 17:47:00,70.5,56.8,30.09,NE,47,0.0,5.0,62,0.00,,,0.00,139.0,meteohub,2013-08-09 22:47:00,
2013-08-09 17:52:00,70.9,56.8,30.09,NNW,339,0.0,5.0,61,0.00,,,0.00,179.0,meteohub,2013-08-09 22:52:00,
2013-08-09 17:57:00,70.7,56.7,30.09,NNW,342,0.0,4.0,61,0.00,,,0.00,74.0,meteohub,2013-08-09 22:57:00,
2013-08-09 18:02:00,70.5,57.7,30.09,North,350,0.0,4.0,64,0.00,,,0.00,88.0,meteohub,2013-08-09 23:02:00,
2013-08-09 18:07:00,70.7,56.7,30.09,West,275,0.0,4.0,61,0.00,,,0.00,185.0,meteohub,2013-08-09 23:07:00,
2013-08-09 18:13:00,70.9,57.2,30.09,West,259,3.0,4.0,62,0.00,,,0.00,190.0,meteohub,2013-08-09 23:13:00,
2013-08-09 18:18:00,70.5,56.8,30.09,West,265,2.0,5.0,62,0.00,,,0.00,174.0,meteohub,2013-08-09 23:18:00,
2013-08-09 18:23:00,70.7,56.7,30.09,West,265,3.0,5.0,61,0.00,,,0.00,221.0,meteohub,2013-08-09 23:23:00,
2013-08-09 18:28:00,70.5,58.1,30.09,NW,323,2.0,5.0,65,0.00,,,0.00,84.0,meteohub,2013-08-09 23:28:00,
2013-08-09 18:33:00,70.5,57.4,30.09,West,263,0.0,4.0,63,0.00,,,0.00,107.0,meteohub,2013-08-09 23:33:00,
2013-08-09 18:38:00,71.1,55.6,30.09,ENE,61,0.0,5.0,58,0.00,,,0.00,294.0,meteohub,2013-08-09 23:38:00,
2013-08-09 18:43:00,71.1,57.4,30.09,ENE,63,0.0,5.0,62,0.00,,,0.00,121.0,meteohub,2013-08-09 23:43:00,
2013-08-09 18:48:00,70.3,57.2,30.09,NNW,336,0.0,5.0,63,0.00,,,0.00,62.0,meteohub,2013-08-09 23:48:00,
2013-08-09 18:53:00,69.6,57.4,30.09,NNW,336,0.0,4.0,65,0.00,,,0.00,67.0,meteohub,2013-08-09 23:53:00,
2013-08-09 18:58:00,69.3,57.0,30.09,ENE,61,0.0,4.0,65,0.00,,,0.00,77.0,meteohub,2013-08-09 23:58:00,
2013-08-09 19:03:00,69.1,58.1,30.09,NE,36,0.0,4.0,68,0.00,,,0.00,72.0,meteohub,2013-08-10 00:03:00,
2013-08-09 19:08:00,69.1,56.8,30.09,NE,36,0.0,4.0,65,0.00,,,0.00,54.0,meteohub,2013-08-10 00:08:00,
2013-08-09 19:13:00,69.3,57.9,30.09,NE,36,0.0,4.0,67,0.00,,,0.00,44.0,meteohub,2013-08-10 00:13:00,
2013-08-09 19:18:00,68.9,57.6,30.09,NE,36,0.0,2.0,67,0.00,,,0.00,62.0,meteohub,2013-08-10 00:18:00,
2013-08-09 19:23:00,68.7,57.7,30.09,NNW,346,0.0,1.0,68,0.00,,,0.00,39.0,meteohub,2013-08-10 00:23:00,
2013-08-09 19:28:00,68.5,56.7,30.09,NNW,346,0.0,3.0,66,0.00,,,0.00,49.0,meteohub,2013-08-10 00:28:00,
2013-08-09 19:33:00,68.9,57.9,30.09,North,350,0.0,3.0,68,0.00,,,0.00,33.0,meteohub,2013-08-10 00:33:00,
2013-08-09 19:38:00,68.5,57.2,30.09,North,350,0.0,2.0,67,0.00,,,0.00,32.0,meteohub,2013-08-10 00:38:00,
2013-08-09 19:43:00,68.5,57.2,30.09,North,350,0.0,2.0,67,0.00,,,0.00,30.0,meteohub,2013-08-10 00:43:00,
2013-08-09 19:48:00,68.2,57.2,30.09,North,350,0.0,1.0,68,0.00,,,0.00,23.0,meteohub,2013-08-10 00:48:00,
2013-08-09 19:53:00,67.6,57.9,30.09,North,350,0.0,1.0,71,0.00,,,0.00,23.0,meteohub,2013-08-10 00:53:00,
2013-08-09 19:58:00,67.5,57.4,30.09,North,350,0.0,0.0,70,0.00,,,0.00,26.0,meteohub,2013-08-10 00:58:00,
2013-08-09 20:03:00,67.3,57.6,30.09,North,350,0.0,0.0,71,0.00,,,0.00,23.0,meteohub,2013-08-10 01:03:00,
2013-08-09 20:08:00,66.9,57.6,30.09,North,350,0.0,0.0,72,0.00,,,0.00,18.0,meteohub,2013-08-10 01:08:00,
2013-08-09 20:13:00,66.6,57.2,30.10,North,350,0.0,0.0,72,0.00,,,0.00,14.0,meteohub,2013-08-10 01:13:00,
2013-08-09 20:18:00,66.0,58.3,30.10,North,350,0.0,0.0,76,0.00,,,0.00,12.0,meteohub,2013-08-10 01:18:00,
2013-08-09 20:23:00,65.7,57.9,30.10,North,350,0.0,0.0,76,0.00,,,0.00,9.0,meteohub,2013-08-10 01:23:00,
2013-08-09 20:28:00,65.1,57.4,30.11,North,350,0.0,0.0,76,0.00,,,0.00,7.0,meteohub,2013-08-10 01:28:00,
2013-08-09 20:33:00,64.8,58.5,30.11,North,350,0.0,0.0,80,0.00,,,0.00,5.0,meteohub,2013-08-10 01:33:00,
2013-08-09 20:38:00,64.4,58.1,30.11,North,350,0.0,0.0,80,0.00,,,0.00,0.0,meteohub,2013-08-10 01:38:00,
2013-08-09 20:43:00,64.2,57.9,30.11,North,350,0.0,0.0,80,0.00,,,0.00,0.0,meteohub,2013-08-10 01:43:00,
2013-08-09 20:48:00,64.2,57.6,30.11,North,350,0.0,0.0,79,0.00,,,0.00,0.0,meteohub,2013-08-10 01:48:00,
2013-08-09 20:53:00,64.0,57.4,30.11,North,350,0.0,0.0,79,0.00,,,0.00,0.0,meteohub,2013-08-10 01:53:00,
2013-08-09 20:58:00,63.9,57.6,30.12,North,350,0.0,0.0,80,0.00,,,0.00,0.0,meteohub,2013-08-10 01:58:00,
2013-08-09 21:03:00,63.3,57.0,30.12,North,350,0.0,0.0,80,0.00,,,0.00,0.0,meteohub,2013-08-10 02:03:00,
2013-08-09 21:08:00,63.0,57.0,30.12,North,350,0.0,0.0,81,0.00,,,0.00,0.0,meteohub,2013-08-10 02:08:00,
2013-08-09 21:13:00,62.4,56.8,30.12,North,350,0.0,0.0,82,0.00,,,0.00,0.0,meteohub,2013-08-10 02:13:00,
2013-08-09 21:18:00,62.2,56.7,30.12,North,350,0.0,0.0,82,0.00,,,0.00,0.0,meteohub,2013-08-10 02:18:00,
2013-08-09 21:23:00,62.1,56.5,30.12,North,350,0.0,0.0,82,0.00,,,0.00,0.0,meteohub,2013-08-10 02:23:00,
2013-08-09 21:24:00,62.1,56.5,30.12,North,350,0.0,0.0,82,0.00,,,0.00,0.0,meteohub,2013-08-10 02:24:00,
2013-08-09 21:29:00,61.5,55.9,30.13,North,350,0.0,0.0,82,0.00,,,0.00,0.0,meteohub,2013-08-10 02:29:00,
2013-08-09 21:34:00,61.3,56.1,30.13,North,350,0.0,0.0,83,0.00,,,0.00,0.0,meteohub,2013-08-10 02:34:00,
2013-08-09 21:39:00,61.2,55.9,30.13,North,350,0.0,0.0,83,0.00,,,0.00,0.0,meteohub,2013-08-10 02:39:00,
2013-08-09 21:44:00,61.2,55.9,30.13,North,350,0.0,0.0,83,0.00,,,0.00,0.0,meteohub,2013-08-10 02:44:00,
2013-08-09 21:49:00,61.0,56.1,30.13,North,350,0.0,0.0,84,0.00,,,0.00,0.0,meteohub,2013-08-10 02:49:00,
2013-08-09 21:54:00,60.6,55.8,30.13,North,350,0.0,0.0,84,0.00,,,0.00,0.0,meteohub,2013-08-10 02:54:00,
2013-08-09 21:59:00,60.3,55.8,30.13,North,350,0.0,0.0,85,0.00,,,0.00,0.0,meteohub,2013-08-10 02:59:00,
2013-08-09 22:04:00,60.3,55.8,30.14,North,350,0.0,0.0,85,0.00,,,0.00,0.0,meteohub,2013-08-10 03:04:00,
2013-08-09 22:09:00,60.3,56.1,30.13,North,350,0.0,0.0,86,0.00,,,0.00,0.0,meteohub,2013-08-10 03:09:00,
2013-08-09 22:14:00,60.3,56.3,30.13,North,350,0.0,0.0,87,0.00,,,0.00,0.0,meteohub,2013-08-10 03:14:00,
2013-08-09 22:19:00,60.1,56.1,30.13,North,350,0.0,0.0,87,0.00,,,0.00,0.0,meteohub,2013-08-10 03:19:00,
2013-08-09 22:24:00,60.1,56.5,30.13,North,350,0.0,0.0,88,0.00,,,0.00,0.0,meteohub,2013-08-10 03:24:00,
2013-08-09 22:29:00,59.9,55.9,30.13,North,350,0.0,0.0,87,0.00,,,0.00,0.0,meteohub,2013-08-10 03:29:00,
2013-08-09 22:34:00,59.7,55.8,30.13,North,350,0.0,0.0,87,0.00,,,0.00,0.0,meteohub,2013-08-10 03:34:00,
2013-08-09 22:39:00,59.7,56.1,30.13,North,350,0.0,0.0,88,0.00,,,0.00,0.0,meteohub,2013-08-10 03:39:00,
2013-08-09 22:44:00,59.5,55.9,30.13,North,350,0.0,0.0,88,0.00,,,0.00,0.0,meteohub,2013-08-10 03:44:00,
2013-08-09 22:49:00,59.5,55.9,30.13,North,350,0.0,0.0,88,0.00,,,0.00,0.0,meteohub,2013-08-10 03:49:00,
2013-08-09 22:54:00,59.4,56.1,30.13,North,350,0.0,0.0,89,0.00,,,0.00,0.0,meteohub,2013-08-10 03:54:00,
2013-08-09 22:59:00,59.4,56.1,30.14,North,350,0.0,0.0,89,0.00,,,0.00,0.0,meteohub,2013-08-10 03:59:00,
2013-08-09 23:01:00,59.2,55.9,30.14,North,350,0.0,0.0,89,0.00,,,0.00,0.0,meteohub,2013-08-10 04:01:00,
2013-08-09 23:07:00,58.8,55.9,30.14,North,350,0.0,0.0,90,0.00,,,0.00,0.0,meteohub,2013-08-10 04:07:00,
2013-08-09 23:11:00,58.6,55.8,30.14,North,350,0.0,0.0,90,0.00,,,0.00,0.0,meteohub,2013-08-10 04:11:00,
2013-08-09 23:17:00,58.5,55.6,30.14,North,350,0.0,0.0,90,0.00,,,0.00,0.0,meteohub,2013-08-10 04:17:00,
2013-08-09 23:22:00,58.5,55.6,30.14,North,350,0.0,0.0,90,0.00,,,0.00,0.0,meteohub,2013-08-10 04:22:00,
2013-08-09 23:27:00,58.3,55.6,30.14,North,350,0.0,0.0,91,0.00,,,0.00,0.0,meteohub,2013-08-10 04:27:00,
2013-08-09 23:32:00,57.9,55.2,30.14,North,350,0.0,0.0,91,0.00,,,0.00,0.0,meteohub,2013-08-10 04:32:00,
2013-08-09 23:37:00,57.9,55.6,30.14,North,350,0.0,0.0,92,0.00,,,0.00,0.0,meteohub,2013-08-10 04:37:00,
2013-08-09 23:42:00,57.7,55.8,30.14,North,350,0.0,0.0,93,0.00,,,0.00,0.0,meteohub,2013-08-10 04:42:00,
2013-08-09 23:47:00,57.6,55.6,30.14,North,350,0.0,0.0,93,0.00,,,0.00,0.0,meteohub,2013-08-10 04:47:00,
2013-08-09 23:52:00,57.6,55.6,30.14,North,350,0.0,0.0,93,0.00,,,0.00,0.0,meteohub,2013-08-10 04:52:00,
2013-08-09 23:57:00,57.4,55.4,30.14,North,350,0.0,0.0,93,0.00,,,0.00,0.0,meteohub,2013-08-10 04:57:00,